Time;durP1;ratioP1;P1;durP2;ratioP2;P2;SDS_P1;SDS_P2;PMS_P1;PMS_P2;Temp;Humidity;BMP_temperature;BMP_pressure;BME280_temperature;BME280_humidity;BME280_pressure;Samples;Min_cycle;Max_cycle;Signal;HPM_P1;HPM_P2
2022/09/28 00:01:27;;;;;;;3.50;0.80;;;10.80;37.10;;;;;;5020190;28;20475;-60
2022/09/28 00:03:57;;;;;;;3.30;0.77;;;10.90;37.20;;;;;;5021770;28;20459;-61
2022/09/28 00:06:25;;;;;;;3.73;0.60;;;10.80;37.20;;;;;;4981852;28;1070325;-60
2022/09/28 00:08:53;;;;;;;3.30;0.70;;;10.80;37.10;;;;;;5018975;28;20204;-61
2022/09/28 00:11:21;;;;;;;3.80;0.70;;;10.90;37.30;;;;;;5019277;28;20464;-60
2022/09/28 00:13:51;;;;;;;4.20;0.83;;;10.90;37.00;;;;;;5024105;28;20707;-60
2022/09/28 00:16:20;;;;;;;5.60;0.90;;;10.90;36.90;;;;;;5017105;28;20498;-60
2022/09/28 00:18:48;;;;;;;3.80;0.90;;;10.90;36.90;;;;;;5016855;28;20464;-60
2022/09/28 00:21:17;;;;;;;5.87;0.90;;;10.90;37.00;;;;;;5019152;28;20459;-60
2022/09/28 00:26:32;;;;;;;3.83;0.90;;;10.90;36.90;;;;;;5022678;28;21352;-60
2022/09/28 00:29:01;;;;;;;4.10;1.00;;;10.90;37.10;;;;;;5014619;28;20467;-60
2022/09/28 00:31:31;;;;;;;6.13;1.00;;;10.90;37.10;;;;;;5020057;28;20478;-58
2022/09/28 00:33:59;;;;;;;4.00;0.90;;;10.80;37.10;;;;;;5019704;28;20467;-59
2022/09/28 00:36:27;;;;;;;6.27;1.47;;;10.90;37.30;;;;;;5017925;28;20475;-60
2022/09/28 00:38:55;;;;;;;4.10;1.00;;;10.90;37.40;;;;;;5020381;28;20779;-60
2022/09/28 00:41:22;;;;;;;3.90;0.90;;;10.90;37.40;;;;;;5019719;28;20493;-58
2022/09/28 00:43:50;;;;;;;4.90;1.30;;;10.90;37.50;;;;;;5013139;28;20832;-58
2022/09/28 00:46:21;;;;;;;8.13;1.60;;;10.90;37.80;;;;;;5020773;28;20482;-58
2022/09/28 00:48:54;;;;;;;4.47;1.30;;;10.90;37.70;;;;;;5010871;28;20477;-61
2022/09/28 00:51:24;;;;;;;4.33;1.00;;;10.90;37.70;;;;;;5019326;28;21129;-61
2022/09/28 00:53:51;;;;;;;5.93;1.17;;;10.90;37.70;;;;;;5013322;28;20469;-59
2022/09/28 00:56:21;;;;;;;5.30;1.10;;;10.90;37.90;;;;;;5019316;28;20505;-60
2022/09/28 00:58:53;;;;;;;5.40;1.30;;;10.90;37.90;;;;;;5022020;28;20963;-61
2022/09/28 01:01:20;;;;;;;3.93;0.90;;;10.90;37.80;;;;;;5015059;28;20484;-61
2022/09/28 01:03:48;;;;;;;7.50;1.20;;;10.90;38.30;;;;;;5011252;28;20459;-60
2022/09/28 01:06:18;;;;;;;6.30;1.00;;;10.90;37.90;;;;;;5015531;28;20498;-59
2022/09/28 01:08:49;;;;;;;7.40;1.23;;;10.90;37.80;;;;;;5015540;28;20656;-59
2022/09/28 01:11:16;;;;;;;6.00;1.47;;;10.90;37.60;;;;;;5014167;28;20463;-60
2022/09/28 01:13:44;;;;;;;5.97;1.37;;;10.90;37.80;;;;;;5017993;28;20472;-60
2022/09/28 01:16:23;;;;;;;5.60;1.40;;;10.90;37.90;;;;;;5018253;28;20507;-60
2022/09/28 01:19:00;;;;;;;4.83;1.10;;;10.90;37.80;;;;;;5019794;28;20609;-60
2022/09/28 01:21:27;;;;;;;4.53;1.27;;;10.90;37.70;;;;;;5013426;28;20455;-60
2022/09/28 01:24:13;;;;;;;5.33;1.30;;;10.90;37.80;;;;;;5020137;28;20471;-60
2022/09/28 01:27:09;;;;;;;7.20;1.63;;;10.90;37.90;;;;;;5019453;28;20483;-60
2022/09/28 01:29:52;;;;;;;4.50;1.20;;;10.90;37.90;;;;;;5016199;28;20458;-60
2022/09/28 01:32:34;;;;;;;6.33;1.50;;;10.90;37.80;;;;;;5015470;28;20493;-61
2022/09/28 01:35:07;;;;;;;5.33;1.30;;;10.90;37.70;;;;;;5023321;28;20467;-61
2022/09/28 01:37:42;;;;;;;6.83;1.50;;;10.90;37.60;;;;;;5017112;28;20455;-61
2022/09/28 01:40:09;;;;;;;5.77;1.67;;;10.90;37.80;;;;;;5016148;28;20569;-60
2022/09/28 01:42:39;;;;;;;7.43;1.53;;;10.80;37.70;;;;;;5017441;28;20930;-60
2022/09/28 01:45:12;;;;;;;7.47;1.33;;;10.80;37.70;;;;;;5020107;28;20465;-60
2022/09/28 01:47:40;;;;;;;5.80;1.67;;;10.80;37.70;;;;;;5017324;28;20479;-60
2022/09/28 01:50:11;;;;;;;5.43;1.43;;;10.80;38.00;;;;;;5013304;28;20490;-61
2022/09/28 01:52:45;;;;;;;3.83;1.03;;;10.80;37.90;;;;;;5018721;28;20458;-60
2022/09/28 01:55:18;;;;;;;5.20;1.37;;;10.80;37.90;;;;;;5016081;28;20462;-60
2022/09/28 01:57:51;;;;;;;7.87;1.60;;;10.80;37.80;;;;;;5021253;28;20458;-61
2022/09/28 02:00:19;;;;;;;10.20;1.40;;;10.80;37.80;;;;;;5021261;28;20954;-61
2022/09/28 02:02:52;;;;;;;5.70;1.83;;;10.80;37.80;;;;;;5016028;28;20893;-60
2022/09/28 02:05:24;;;;;;;6.10;1.90;;;10.80;37.70;;;;;;5019636;28;20964;-60
2022/09/28 02:07:58;;;;;;;4.20;1.10;;;10.80;37.80;;;;;;5012755;28;20483;-60
2022/09/28 02:10:28;;;;;;;7.90;1.93;;;10.80;37.90;;;;;;5024672;28;20516;-61
2022/09/28 02:13:02;;;;;;;6.00;1.13;;;10.80;37.90;;;;;;5019372;28;20462;-60
2022/09/28 02:15:37;;;;;;;4.80;2.10;;;10.80;37.70;;;;;;5017649;28;21036;-60
2022/09/28 02:18:04;;;;;;;5.17;1.40;;;10.80;37.80;;;;;;5019110;28;21085;-60
2022/09/28 02:20:34;;;;;;;4.73;1.60;;;10.80;37.50;;;;;;5011475;28;21565;-61
2022/09/28 02:23:02;;;;;;;6.50;1.50;;;10.80;37.60;;;;;;5014521;28;20463;-61
2022/09/28 02:25:36;;;;;;;5.20;1.40;;;10.80;37.80;;;;;;5019464;28;20487;-60
2022/09/28 02:28:06;;;;;;;4.50;1.33;;;10.80;37.80;;;;;;5014030;28;20471;-60
2022/09/28 02:30:36;;;;;;;5.63;1.67;;;10.80;37.70;;;;;;5016686;28;20456;-60
2022/09/28 02:33:09;;;;;;;4.50;1.40;;;10.80;37.70;;;;;;5014986;28;20491;-60
2022/09/28 02:35:37;;;;;;;4.47;1.57;;;10.80;37.70;;;;;;5006705;28;20475;-61
2022/09/28 02:38:04;;;;;;;5.40;1.40;;;10.80;37.70;;;;;;5023065;28;20459;-60
2022/09/28 02:40:33;;;;;;;4.93;1.33;;;10.80;37.60;;;;;;5014090;28;21052;-61
2022/09/28 02:43:09;;;;;;;4.57;1.20;;;10.80;37.60;;;;;;5019681;28;20469;-60
2022/09/28 02:45:52;;;;;;;4.67;1.40;;;10.80;37.60;;;;;;5013024;28;20466;-60
2022/09/28 02:48:47;;;;;;;5.60;1.63;;;10.90;37.70;;;;;;5017709;28;20796;-60
2022/09/28 02:51:23;;;;;;;7.17;1.40;;;10.80;37.60;;;;;;5021381;28;20470;-60
2022/09/28 02:54:16;;;;;;;4.77;1.40;;;10.90;37.60;;;;;;5021324;28;21192;-60
2022/09/28 02:56:59;;;;;;;5.23;1.40;;;10.90;37.20;;;;;;5018440;28;20976;-60
2022/09/28 02:59:43;;;;;;;6.00;1.33;;;10.90;37.20;;;;;;5017286;28;20466;-61
2022/09/28 03:02:20;;;;;;;4.60;1.50;;;10.90;37.30;;;;;;5017641;28;20471;-61
2022/09/28 03:04:59;;;;;;;5.57;1.40;;;10.90;37.00;;;;;;5018669;28;20486;-60
2022/09/28 03:07:31;;;;;;;4.77;1.10;;;10.90;37.10;;;;;;5018796;28;21013;-61
2022/09/28 03:10:03;;;;;;;5.30;1.00;;;11.00;37.00;;;;;;5023830;28;20466;-60
2022/09/28 03:12:32;;;;;;;4.30;1.30;;;11.00;36.90;;;;;;5017085;28;20463;-61
2022/09/28 03:15:14;;;;;;;5.10;0.93;;;10.90;37.10;;;;;;5019731;28;20555;-61
2022/09/28 03:17:41;;;;;;;4.50;1.23;;;11.00;37.00;;;;;;5023715;28;20574;-60
2022/09/28 03:20:10;;;;;;;8.73;1.30;;;11.00;36.80;;;;;;5014811;28;20463;-61
2022/09/28 03:22:37;;;;;;;5.43;1.10;;;11.00;36.60;;;;;;5019131;28;20465;-60
2022/09/28 03:25:04;;;;;;;4.43;1.07;;;11.00;36.20;;;;;;5017971;28;20960;-60
2022/09/28 03:27:31;;;;;;;4.23;1.20;;;11.00;36.10;;;;;;5019063;28;20470;-60
2022/09/28 03:29:58;;;;;;;5.00;1.07;;;11.00;36.00;;;;;;5017959;28;20464;-60
2022/09/28 03:32:26;;;;;;;7.73;1.13;;;11.00;35.80;;;;;;5018040;28;20481;-59
2022/09/28 03:34:53;;;;;;;4.10;1.13;;;11.00;35.80;;;;;;5016700;28;20470;-60
2022/09/28 03:37:20;;;;;;;4.33;0.83;;;11.00;36.00;;;;;;5021931;28;20910;-59
2022/09/28 03:39:46;;;;;;;6.97;1.20;;;11.00;35.90;;;;;;5016531;28;20876;-59
2022/09/28 03:42:13;;;;;;;3.87;0.90;;;11.10;35.80;;;;;;5013141;28;20471;-59
2022/09/28 03:44:40;;;;;;;3.40;1.00;;;11.10;35.50;;;;;;5017532;28;22742;-58
2022/09/28 03:47:07;;;;;;;3.70;0.83;;;11.10;35.60;;;;;;5018412;28;20485;-59
2022/09/28 03:49:36;;;;;;;4.50;0.90;;;11.10;35.50;;;;;;5023894;28;20860;-59
2022/09/28 03:52:04;;;;;;;5.00;1.03;;;11.10;35.20;;;;;;5018621;28;20464;-59
2022/09/28 03:54:32;;;;;;;3.40;1.20;;;11.20;35.10;;;;;;5024499;28;20467;-59
2022/09/28 03:56:59;;;;;;;5.97;1.10;;;11.20;35.00;;;;;;5019614;28;20861;-59
2022/09/28 03:59:25;;;;;;;7.10;1.27;;;11.20;34.90;;;;;;5020329;28;20537;-59
2022/09/28 04:01:52;;;;;;;3.63;1.00;;;11.20;34.90;;;;;;5012625;28;20471;-58
2022/09/28 04:04:19;;;;;;;5.43;2.10;;;11.10;35.00;;;;;;5017242;28;20994;-58
2022/09/28 04:06:47;;;;;;;5.53;0.93;;;11.20;35.20;;;;;;5017399;28;20506;-59
2022/09/28 04:09:15;;;;;;;3.50;0.90;;;11.10;35.30;;;;;;5017070;28;20488;-59
2022/09/28 04:11:42;;;;;;;4.90;0.93;;;11.10;35.40;;;;;;5016871;28;20812;-61
2022/09/28 04:14:08;;;;;;;6.13;1.20;;;11.10;35.50;;;;;;5020057;28;20458;-61
2022/09/28 04:16:35;;;;;;;5.63;1.00;;;11.10;35.80;;;;;;5014709;28;20493;-64
2022/09/28 04:19:02;;;;;;;4.40;0.93;;;11.10;35.90;;;;;;5018112;28;20454;-60
2022/09/28 04:21:29;;;;;;;6.40;0.97;;;11.10;35.90;;;;;;5019740;28;20493;-60
2022/09/28 04:23:58;;;;;;;3.90;0.90;;;11.10;36.00;;;;;;5018069;28;20455;-60
2022/09/28 04:26:26;;;;;;;3.73;0.70;;;11.10;36.20;;;;;;5029615;28;20532;-60
2022/09/28 04:31:38;;;;;;;3.30;0.70;;;11.10;36.40;;;;;;5017457;28;20474;-60
2022/09/28 04:34:05;;;;;;;4.30;1.10;;;11.10;36.30;;;;;;5017752;28;20456;-60
2022/09/28 04:36:32;;;;;;;3.50;0.90;;;11.10;36.20;;;;;;5026001;28;20475;-60
2022/09/28 04:39:00;;;;;;;3.40;0.80;;;11.10;36.40;;;;;;5041928;23;20513;-59
2022/09/28 04:41:27;;;;;;;5.63;1.30;;;11.00;36.40;;;;;;5045741;28;20461;-59
2022/09/28 04:43:54;;;;;;;5.60;1.10;;;11.00;36.70;;;;;;5038649;28;20454;-58
2022/09/28 04:46:21;;;;;;;4.47;0.80;;;11.00;36.80;;;;;;5041753;28;20458;-57
2022/09/28 04:48:47;;;;;;;3.90;0.90;;;11.00;36.90;;;;;;5040449;28;20560;-57
2022/09/28 04:51:14;;;;;;;5.10;0.90;;;11.00;36.90;;;;;;5040605;28;20951;-59
2022/09/28 04:53:41;;;;;;;3.60;0.90;;;11.00;36.90;;;;;;5043126;28;20459;-59
2022/09/28 04:56:12;;;;;;;4.43;0.90;;;11.00;36.90;;;;;;5035710;28;20466;-59
2022/09/28 04:58:39;;;;;;;4.70;1.33;;;11.00;37.10;;;;;;5039986;28;21234;-57
2022/09/28 05:01:08;;;;;;;3.90;0.90;;;11.00;37.10;;;;;;5038979;28;20550;-58
2022/09/28 05:03:34;;;;;;;4.43;0.90;;;11.00;37.30;;;;;;5043042;28;20495;-57
2022/09/28 05:06:01;;;;;;;4.93;0.90;;;10.90;37.50;;;;;;5036818;28;20461;-60
2022/09/28 05:08:28;;;;;;;4.13;1.20;;;10.90;37.50;;;;;;5048293;28;20481;-60
2022/09/28 05:10:59;;;;;;;4.70;1.70;;;10.90;37.70;;;;;;5032321;28;20988;-57
2022/09/28 05:13:27;;;;;;;4.40;1.50;;;10.90;37.70;;;;;;5043553;28;20450;-57
2022/09/28 05:15:56;;;;;;;6.50;1.40;;;10.90;37.90;;;;;;5028278;28;20467;-57
2022/09/28 05:18:22;;;;;;;5.63;1.60;;;10.90;37.90;;;;;;5040776;28;20460;-58
2022/09/28 05:20:49;;;;;;;4.70;1.80;;;10.90;38.00;;;;;;5036554;28;20467;-58
2022/09/28 05:23:17;;;;;;;3.97;1.20;;;10.90;37.80;;;;;;5035828;28;20855;-57
2022/09/28 05:25:45;;;;;;;5.07;1.70;;;10.90;38.00;;;;;;5033102;28;20461;-57
2022/09/28 05:28:11;;;;;;;6.77;2.30;;;10.90;38.00;;;;;;5046329;28;20887;-58
2022/09/28 05:30:40;;;;;;;7.63;1.93;;;10.90;38.10;;;;;;5043046;28;20462;-57
2022/09/28 05:33:07;;;;;;;4.23;1.20;;;11.00;37.90;;;;;;5036395;28;20462;-57
2022/09/28 05:35:34;;;;;;;4.80;1.20;;;11.00;37.90;;;;;;5041629;28;20450;-57
2022/09/28 05:38:04;;;;;;;5.90;1.97;;;11.00;37.90;;;;;;5039602;28;20454;-58
2022/09/28 05:40:31;;;;;;;4.80;1.30;;;11.00;37.80;;;;;;5040993;28;20513;-57
2022/09/28 05:43:01;;;;;;;5.73;1.47;;;11.00;37.90;;;;;;5040237;28;20455;-58
2022/09/28 05:45:29;;;;;;;3.90;1.10;;;11.00;38.00;;;;;;5046050;28;20962;-57
2022/09/28 05:47:57;;;;;;;4.40;1.33;;;11.00;38.00;;;;;;5039693;28;20937;-58
2022/09/28 05:50:24;;;;;;;3.80;1.20;;;11.00;38.00;;;;;;5042929;28;20487;-57
2022/09/28 05:52:59;;;;;;;3.80;1.30;;;11.00;37.90;;;;;;5037602;28;20463;-57
2022/09/28 05:55:25;;;;;;;3.67;1.07;;;11.00;38.10;;;;;;5036635;28;20878;-57
2022/09/28 05:57:52;;;;;;;5.67;1.30;;;11.10;38.50;;;;;;5041735;28;20826;-57
2022/09/28 06:00:19;;;;;;;3.87;1.03;;;11.10;37.90;;;;;;5033796;28;21001;-57
2022/09/28 06:02:57;;;;;;;4.57;1.13;;;11.10;38.00;;;;;;5040821;28;20470;-57
2022/09/28 06:05:24;;;;;;;5.50;1.50;;;11.10;38.20;;;;;;5042377;28;20511;-57
2022/09/28 06:07:52;;;;;;;3.97;1.20;;;11.10;38.60;;;;;;5043321;28;20989;-57
2022/09/28 06:10:19;;;;;;;3.90;1.10;;;11.10;38.10;;;;;;5043709;28;21177;-57
2022/09/28 06:12:46;;;;;;;3.60;1.00;;;11.10;38.40;;;;;;5040155;28;20466;-57
2022/09/28 06:15:14;;;;;;;4.07;1.20;;;11.20;38.30;;;;;;5044795;28;20462;-58
2022/09/28 06:17:42;;;;;;;3.80;0.87;;;11.20;38.30;;;;;;5041314;28;20462;-57
2022/09/28 06:20:11;;;;;;;3.87;0.83;;;11.20;38.20;;;;;;5048491;28;20716;-58
2022/09/28 06:22:38;;;;;;;4.73;1.30;;;11.20;38.20;;;;;;5042772;28;20508;-57
2022/09/28 06:25:06;;;;;;;4.33;0.97;;;11.20;38.30;;;;;;5040352;28;20463;-58
2022/09/28 06:27:33;;;;;;;4.10;1.00;;;11.20;38.40;;;;;;5045576;28;20531;-58
2022/09/28 06:30:01;;;;;;;3.90;1.00;;;11.20;38.10;;;;;;5043917;28;20488;-58
2022/09/28 06:32:28;;;;;;;3.47;0.83;;;11.30;38.00;;;;;;5036971;28;21006;-58
2022/09/28 06:34:55;;;;;;;6.20;1.07;;;11.30;37.80;;;;;;5047213;28;20462;-57
2022/09/28 06:37:24;;;;;;;3.50;0.80;;;11.30;37.80;;;;;;5045181;28;20970;-57
2022/09/28 06:39:52;;;;;;;3.50;0.80;;;11.30;38.00;;;;;;5042844;28;20513;-57
2022/09/28 06:42:18;;;;;;;3.90;1.10;;;11.30;37.90;;;;;;5039970;28;20534;-58
2022/09/28 06:44:46;;;;;;;3.57;0.97;;;11.30;38.10;;;;;;5045344;28;20464;-58
2022/09/28 06:47:13;;;;;;;3.67;0.90;;;11.30;38.10;;;;;;5043303;28;20455;-59
2022/09/28 06:49:40;;;;;;;4.03;1.30;;;11.30;38.20;;;;;;5036666;28;20493;-58
2022/09/28 06:52:07;;;;;;;3.93;0.97;;;11.30;38.40;;;;;;5042274;28;20469;-59
2022/09/28 06:54:35;;;;;;;4.10;1.20;;;11.40;38.40;;;;;;5045408;28;20914;-59
2022/09/28 06:57:02;;;;;;;3.77;0.90;;;11.40;38.70;;;;;;5045821;28;20462;-59
2022/09/28 06:59:29;;;;;;;3.80;1.00;;;11.40;38.70;;;;;;5039198;28;20471;-58
2022/09/28 07:01:55;;;;;;;3.93;0.87;;;11.40;38.70;;;;;;5046539;28;20492;-59
2022/09/28 07:04:22;;;;;;;4.03;0.93;;;11.40;38.70;;;;;;5038126;28;20453;-59
2022/09/28 07:06:49;;;;;;;9.23;1.47;;;11.50;38.80;;;;;;5038962;28;20538;-59
2022/09/28 07:09:16;;;;;;;4.53;0.80;;;11.50;39.00;;;;;;5041835;28;21006;-59
2022/09/28 07:11:44;;;;;;;4.03;0.53;;;11.50;38.30;;;;;;5045161;28;20462;-59
2022/09/28 07:14:11;;;;;;;7.00;0.70;;;11.40;37.50;;;;;;5041938;28;20490;-59
2022/09/28 07:16:38;;;;;;;4.03;0.60;;;11.30;37.20;;;;;;5033577;28;20541;-59
2022/09/28 07:19:05;;;;;;;3.87;0.70;;;11.30;37.40;;;;;;5044070;28;20839;-59
2022/09/28 07:21:32;;;;;;;4.20;0.60;;;11.20;37.20;;;;;;5035687;28;20457;-58
2022/09/28 07:23:59;;;;;;;3.30;0.60;;;11.20;37.20;;;;;;5036927;28;20459;-59
2022/09/28 07:26:26;;;;;;;3.63;0.50;;;11.20;37.30;;;;;;5041686;28;20458;-58
2022/09/28 07:28:54;;;;;;;3.37;0.67;;;11.20;37.50;;;;;;5039642;28;20493;-59
2022/09/28 07:31:23;;;;;;;5.77;0.80;;;11.20;37.50;;;;;;5041540;28;20528;-58
2022/09/28 07:33:52;;;;;;;3.40;0.50;;;11.30;37.60;;;;;;5041595;28;21036;-59
2022/09/28 07:36:19;;;;;;;4.20;0.80;;;11.20;37.50;;;;;;5041057;28;20534;-58
2022/09/28 07:38:46;;;;;;;3.80;0.70;;;11.20;37.60;;;;;;5040943;28;20489;-59
2022/09/28 07:41:13;;;;;;;3.50;0.80;;;11.20;37.60;;;;;;5041201;28;20790;-58
2022/09/28 07:43:41;;;;;;;4.37;1.20;;;11.20;37.70;;;;;;5042845;28;21061;-58
2022/09/28 07:46:10;;;;;;;3.37;0.73;;;11.20;37.80;;;;;;5036635;28;20999;-58
2022/09/28 07:48:39;;;;;;;3.40;0.77;;;11.20;37.70;;;;;;5037847;28;20482;-58
2022/09/28 07:51:07;;;;;;;3.50;0.73;;;11.20;37.70;;;;;;5039705;28;20458;-58
2022/09/28 07:53:34;;;;;;;3.23;0.63;;;11.30;37.70;;;;;;5037267;28;20459;-58
2022/09/28 07:56:06;;;;;;;5.93;0.90;;;11.20;37.60;;;;;;5035762;28;20454;-58
2022/09/28 07:58:33;;;;;;;3.70;0.70;;;11.20;37.60;;;;;;5044388;28;21000;-58
2022/09/28 08:01:05;;;;;;;4.13;0.90;;;11.20;37.50;;;;;;5044782;28;20475;-58
2022/09/28 08:03:34;;;;;;;3.60;0.90;;;11.20;37.60;;;;;;5041629;28;20461;-58
2022/09/28 08:06:03;;;;;;;4.07;0.90;;;11.20;37.60;;;;;;5045197;28;20524;-58
2022/09/28 08:08:30;;;;;;;3.60;0.70;;;11.30;37.50;;;;;;5044959;28;20860;-58
2022/09/28 08:10:57;;;;;;;3.37;0.80;;;11.40;37.50;;;;;;5031527;28;20568;-58
2022/09/28 08:13:25;;;;;;;3.60;0.70;;;11.40;37.40;;;;;;5031991;28;20462;-58
2022/09/28 08:15:52;;;;;;;4.50;0.80;;;11.50;37.30;;;;;;5036713;28;20458;-58
2022/09/28 08:18:19;;;;;;;3.40;0.70;;;11.50;37.20;;;;;;5043783;28;20467;-59
2022/09/28 08:23:32;;;;;;;5.87;0.60;;;11.60;37.00;;;;;;5044282;28;20977;-58
2022/09/28 08:25:58;;;;;;;3.30;0.60;;;11.70;36.90;;;;;;5039755;28;20469;-58
2022/09/28 08:28:25;;;;;;;4.90;0.67;;;11.70;36.70;;;;;;5038094;28;20466;-58
2022/09/28 08:30:53;;;;;;;3.40;0.70;;;11.80;36.40;;;;;;5037276;28;20474;-59
2022/09/28 08:33:21;;;;;;;3.97;0.70;;;11.80;36.20;;;;;;5043068;28;20462;-59
2022/09/28 08:35:56;;;;;;;4.03;0.70;;;11.80;35.80;;;;;;5039155;28;20459;-58
2022/09/28 08:38:23;;;;;;;3.40;0.70;;;11.90;35.70;;;;;;5033572;28;20497;-58
2022/09/28 08:40:59;;;;;;;3.70;0.73;;;12.00;35.50;;;;;;5041339;28;20458;-58
2022/09/28 08:43:51;;;;;;;4.47;0.90;;;12.10;35.50;;;;;;5046641;28;20466;-58
2022/09/28 08:46:21;;;;;;;3.23;0.60;;;12.30;35.20;;;;;;5042870;28;20954;-58
2022/09/28 08:48:53;;;;;;;3.80;0.80;;;12.40;34.80;;;;;;5046597;28;20474;-58
2022/09/28 08:51:25;;;;;;;3.90;0.97;;;12.50;34.50;;;;;;5036537;28;20447;-58
2022/09/28 08:53:58;;;;;;;4.37;0.70;;;12.60;34.20;;;;;;5045747;28;20845;-58
2022/09/28 08:56:29;;;;;;;6.83;0.90;;;12.70;33.80;;;;;;5039799;28;20962;-58
2022/09/28 08:58:59;;;;;;;7.10;1.43;;;12.70;33.50;;;;;;5032406;28;20845;-58
2022/09/28 09:01:34;;;;;;;5.27;1.20;;;12.80;33.10;;;;;;5042527;28;20481;-58
2022/09/28 09:04:03;;;;;;;4.53;1.30;;;12.90;32.90;;;;;;5041516;28;20462;-59
2022/09/28 09:06:42;;;;;;;6.83;1.10;;;13.00;32.80;;;;;;5040283;28;20462;-58
2022/09/28 09:09:18;;;;;;;4.27;1.10;;;13.10;32.60;;;;;;5038714;28;20490;-59
2022/09/28 09:11:57;;;;;;;4.67;1.20;;;13.10;32.40;;;;;;5043806;28;20463;-58
2022/09/28 09:14:48;;;;;;;5.40;1.37;;;13.10;32.50;;;;;;5036604;28;20461;-58
2022/09/28 09:17:22;;;;;;;4.30;0.90;;;13.10;32.70;;;;;;5036679;28;20858;-58
2022/09/28 09:19:54;;;;;;;4.90;1.30;;;13.20;32.60;;;;;;5032983;28;20481;-59
2022/09/28 09:22:35;;;;;;;6.13;1.33;;;13.30;32.50;;;;;;5038716;28;21150;-58
2022/09/28 09:25:17;;;;;;;3.40;0.70;;;13.30;32.50;;;;;;5035385;28;20454;-58
2022/09/28 09:27:55;;;;;;;3.70;1.07;;;13.30;32.20;;;;;;5040380;28;20462;-58
2022/09/28 09:30:23;;;;;;;3.77;0.93;;;13.30;32.10;;;;;;5041033;28;20481;-58
2022/09/28 09:33:23;;;;;;;4.47;1.37;;;13.30;31.90;;;;;;5038944;28;20462;-58
2022/09/28 09:36:00;;;;;;;3.77;1.03;;;13.30;31.90;;;;;;5039599;28;21018;-58
2022/09/28 09:38:47;;;;;;;3.77;1.00;;;13.40;31.70;;;;;;5036043;28;20981;-58
2022/09/28 09:41:25;;;;;;;3.90;1.17;;;13.50;31.90;;;;;;5037172;28;20473;-58
2022/09/28 09:44:20;;;;;;;3.73;1.07;;;13.60;31.70;;;;;;5036919;28;20495;-59
2022/09/28 09:46:51;;;;;;;4.50;1.50;;;13.50;31.60;;;;;;5039568;28;20465;-59
2022/09/28 09:49:23;;;;;;;6.43;1.10;;;13.50;31.80;;;;;;5042193;28;20478;-58
2022/09/28 09:51:55;;;;;;;3.90;1.30;;;13.40;31.80;;;;;;5034751;28;20479;-59
2022/09/28 09:54:29;;;;;;;4.90;2.03;;;13.30;31.90;;;;;;5036194;28;20460;-59
2022/09/28 09:57:02;;;;;;;8.43;3.30;;;13.20;31.60;;;;;;5039303;28;20942;-59
2022/09/28 09:59:33;;;;;;;8.77;2.03;;;13.10;31.60;;;;;;5035264;28;20528;-58
2022/09/28 10:02:03;;;;;;;4.17;1.07;;;13.10;31.70;;;;;;5030225;28;20485;-58
2022/09/28 10:04:37;;;;;;;9.33;1.20;;;13.00;31.50;;;;;;5042044;28;20462;-58
2022/09/28 10:07:05;;;;;;;4.07;1.07;;;13.00;31.20;;;;;;5038719;28;20461;-58
2022/09/28 10:09:37;;;;;;;3.90;0.70;;;12.90;31.40;;;;;;5035536;28;20481;-59
2022/09/28 10:12:08;;;;;;;10.03;1.10;;;12.80;31.30;;;;;;5046763;28;20485;-58
2022/09/28 10:14:35;;;;;;;3.60;0.87;;;12.80;31.40;;;;;;5035004;28;21077;-58
2022/09/28 10:17:03;;;;;;;4.83;1.00;;;12.70;31.60;;;;;;5036670;28;20836;-58
2022/09/28 10:19:32;;;;;;;4.23;1.00;;;12.60;31.90;;;;;;5038405;28;20485;-58
2022/09/28 10:22:01;;;;;;;3.47;0.70;;;12.60;32.20;;;;;;5045803;28;20458;-58
2022/09/28 10:24:32;;;;;;;4.00;1.13;;;12.50;32.50;;;;;;5032305;28;20553;-58
2022/09/28 10:27:05;;;;;;;4.70;1.03;;;12.40;33.10;;;;;;5046458;28;21165;-58
2022/09/28 10:29:41;;;;;;;5.03;1.50;;;12.40;33.30;;;;;;5039452;28;20482;-58
2022/09/28 10:32:19;;;;;;;4.60;1.07;;;12.30;33.70;;;;;;5039799;28;20473;-58
2022/09/28 10:34:46;;;;;;;6.57;1.57;;;12.30;34.00;;;;;;5036939;28;20470;-58
2022/09/28 10:37:13;;;;;;;4.27;1.17;;;12.20;34.10;;;;;;5036453;28;20450;-58
2022/09/28 10:39:47;;;;;;;3.60;1.27;;;12.20;34.30;;;;;;5033863;28;20507;-58
2022/09/28 10:42:20;;;;;;;5.83;1.73;;;12.20;34.40;;;;;;5036948;28;20467;-58
2022/09/28 10:44:56;;;;;;;4.17;1.27;;;12.20;34.70;;;;;;5039501;28;20861;-58
2022/09/28 10:47:25;;;;;;;4.83;1.60;;;12.20;34.80;;;;;;5035539;28;20470;-58
2022/09/28 10:49:54;;;;;;;3.63;1.00;;;12.20;34.70;;;;;;5038207;28;20981;-58
2022/09/28 10:52:35;;;;;;;3.60;1.13;;;12.20;34.80;;;;;;5038697;28;20466;-58
2022/09/28 10:55:03;;;;;;;4.80;1.30;;;12.30;35.00;;;;;;5036388;28;20466;-58
2022/09/28 10:57:36;;;;;;;3.60;1.03;;;12.40;34.90;;;;;;5039771;28;20461;-59
2022/09/28 11:00:07;;;;;;;5.87;1.60;;;12.60;34.90;;;;;;5038030;28;20471;-58
2022/09/28 11:02:36;;;;;;;6.90;1.40;;;12.70;34.60;;;;;;5037706;28;20560;-58
2022/09/28 11:05:06;;;;;;;5.20;1.17;;;12.80;33.80;;;;;;5040157;28;20454;-58
2022/09/28 11:07:34;;;;;;;5.40;1.87;;;13.00;32.90;;;;;;5039278;28;20576;-58
2022/09/28 11:10:02;;;;;;;4.13;1.30;;;13.10;32.80;;;;;;5039131;28;20489;-58
2022/09/28 11:12:44;;;;;;;4.43;1.57;;;13.20;31.90;;;;;;5041489;28;20458;-58
2022/09/28 11:15:18;;;;;;;4.47;1.73;;;13.30;31.60;;;;;;5040364;28;20489;-58
2022/09/28 11:17:45;;;;;;;7.97;1.90;;;13.30;31.80;;;;;;5042276;28;20461;-56
2022/09/28 11:20:31;;;;;;;4.43;1.37;;;13.30;31.60;;;;;;5037183;28;20477;-58
2022/09/28 11:23:00;;;;;;;3.93;1.27;;;13.30;31.50;;;;;;5042666;28;21087;-59
2022/09/28 11:25:29;;;;;;;4.10;1.20;;;13.20;31.20;;;;;;5041880;28;20465;-59
2022/09/28 11:28:00;;;;;;;6.10;1.80;;;13.20;31.20;;;;;;5043436;28;20458;-58
2022/09/28 11:30:31;;;;;;;4.30;1.37;;;13.10;31.20;;;;;;5043445;28;20986;-59
2022/09/28 11:33:04;;;;;;;4.30;1.40;;;13.10;30.90;;;;;;5042268;28;20490;-58
2022/09/28 11:35:46;;;;;;;3.90;1.40;;;13.10;30.90;;;;;;5039477;28;20461;-58
2022/09/28 11:38:30;;;;;;;4.23;1.43;;;13.10;30.80;;;;;;5038942;28;20453;-58
2022/09/28 11:41:08;;;;;;;5.87;1.43;;;13.20;30.60;;;;;;5034968;28;20541;-58
2022/09/28 11:44:07;;;;;;;5.60;1.40;;;13.20;30.50;;;;;;5044355;28;20461;-59
2022/09/28 11:46:45;;;;;;;5.43;1.63;;;13.20;30.60;;;;;;5036057;28;20454;-58
2022/09/28 11:49:25;;;;;;;4.80;1.70;;;13.20;30.30;;;;;;5044196;28;20856;-58
2022/09/28 11:51:56;;;;;;;7.20;1.87;;;13.30;30.20;;;;;;5041844;28;20499;-58
2022/09/28 11:54:27;;;;;;;5.10;2.10;;;13.30;29.70;;;;;;5049227;28;20597;-58
2022/09/28 11:56:59;;;;;;;6.33;1.90;;;13.20;29.70;;;;;;5038125;28;20501;-58
2022/09/28 11:59:33;;;;;;;8.73;2.37;;;13.30;29.70;;;;;;5043503;28;20486;-58
2022/09/28 12:02:10;;;;;;;6.57;2.60;;;13.30;29.60;;;;;;5044162;28;20481;-58
2022/09/28 12:04:42;;;;;;;4.83;2.43;;;13.40;29.50;;;;;;5040017;28;20462;-58
2022/09/28 12:07:14;;;;;;;5.40;2.57;;;13.40;29.60;;;;;;5044384;28;20830;-58
2022/09/28 12:09:47;;;;;;;6.10;2.80;;;13.50;29.00;;;;;;5044724;28;20484;-58
2022/09/28 12:12:21;;;;;;;5.90;2.00;;;13.60;29.20;;;;;;5046249;28;20474;-59
2022/09/28 12:14:56;;;;;;;11.07;5.93;;;13.60;29.10;;;;;;5034950;28;20472;-58
2022/09/28 12:17:26;;;;;;;8.27;4.50;;;13.60;28.70;;;;;;5042085;28;20461;-59
2022/09/28 12:19:58;;;;;;;5.07;2.40;;;13.60;28.80;;;;;;5042292;28;20479;-59
2022/09/28 12:22:31;;;;;;;6.40;1.80;;;13.50;29.20;;;;;;5037537;28;20457;-58
2022/09/28 12:25:00;;;;;;;5.60;2.17;;;13.50;28.80;;;;;;5044132;28;20481;-58
2022/09/28 12:27:37;;;;;;;5.63;2.40;;;13.50;28.80;;;;;;5040888;28;20466;-58
2022/09/28 12:30:13;;;;;;;5.20;1.63;;;13.50;28.60;;;;;;5030989;28;20584;-58
2022/09/28 12:32:46;;;;;;;5.27;1.50;;;13.40;29.00;;;;;;5040547;28;20716;-58
2022/09/28 12:35:14;;;;;;;5.13;1.80;;;13.30;29.50;;;;;;5037767;28;20966;-59
2022/09/28 12:37:57;;;;;;;8.43;2.03;;;13.30;28.60;;;;;;5042969;28;20451;-58
2022/09/28 12:40:37;;;;;;;5.73;1.73;;;13.20;28.80;;;;;;5036070;28;20582;-58
2022/09/28 12:43:39;;;;;;;4.90;1.73;;;13.10;29.60;;;;;;5038256;28;20466;-59
2022/09/28 12:46:28;;;;;;;5.23;2.20;;;13.00;30.00;;;;;;5042120;28;20971;-59
2022/09/28 12:49:13;;;;;;;4.50;2.20;;;12.90;30.30;;;;;;5044055;28;20478;-56
2022/09/28 12:51:48;;;;;;;4.70;2.40;;;12.90;30.30;;;;;;5042638;28;20475;-57
2022/09/28 12:54:42;;;;;;;6.53;2.40;;;12.90;30.60;;;;;;5041343;28;20468;-57
2022/09/28 12:57:29;;;;;;;6.80;2.03;;;12.90;31.00;;;;;;5039288;28;20486;-57
2022/09/28 13:00:04;;;;;;;8.40;2.17;;;12.80;31.00;;;;;;5033882;28;20486;-57
2022/09/28 13:02:50;;;;;;;5.20;2.10;;;12.90;30.70;;;;;;5040272;28;20484;-57
2022/09/28 13:05:31;;;;;;;4.70;1.97;;;12.80;31.10;;;;;;5037827;28;20454;-57
2022/09/28 13:08:04;;;;;;;5.27;2.20;;;12.70;31.50;;;;;;5037740;28;20481;-57
2022/09/28 13:10:37;;;;;;;6.20;2.70;;;12.70;32.00;;;;;;5035588;28;20488;-57
2022/09/28 13:13:22;;;;;;;6.87;2.93;;;12.70;32.50;;;;;;5042944;28;20454;-57
2022/09/28 13:15:55;;;;;;;6.77;2.43;;;12.70;32.90;;;;;;5043050;28;20458;-57